Kirkby — S6NR — position and weather

sailwx.info

Track history (hours):
 
Tides and Currents Weather Stations Pressure Air Temp Water Temp Dewpoint Dewpoint Depression Visibility Wind Speed Wind Dir Waves Ship Positions

Kirkby

Last reported at 2017-Sep-24 04:24 UTC. Time now 2017-Sep-24 19:28 UTC.
Position N 35°53' W 004°57'.

Length 120 m; draft 6.9 m.

Type: Ship (hazmat cat A). MMSI: 566813000.

Date/timePositionNaut miles runAvg speedWind from/ knotsBaromVisibWave heightAir tempDewpointWater temp
2017-Sep-24 04:24N 35°53' W 004°57'  
2017-Sep-17 05:50N 35°26' E 013°46'913.0
2017-Sep-17 05:07N 35°30' E 013°56'213.1
2017-Sep-17 04:59N 35°31' E 013°58'612.8
2017-Sep-17 04:30N 35°33' E 014°05'612.7
2017-Sep-17 04:00N 35°36' E 014°12'712.8
2017-Sep-17 03:29N 35°39' E 014°20'612.9
2017-Sep-17 03:00N 35°42' E 014°27'812.8
2017-Sep-17 02:24N 35°45' E 014°35'512.9
2017-Sep-17 02:00N 35°48' E 014°40'612.0
2017-Sep-17 01:30N 35°54' E 014°42'510.1
2017-Sep-17 01:00N 35°58' E 014°39'1 1.1
2017-Sep-17 00:30N 35°58' E 014°38'0 0.8
2017-Sep-17 00:00N 35°58' E 014°38'1 2.7
2017-Sep-16 23:30N 35°59' E 014°39'3 5.5
2017-Sep-16 23:00N 36°01' E 014°41'3 5.6
2017-Sep-16 22:29N 36°04' E 014°43'3 6.1
2017-Sep-16 22:00N 36°06' E 014°45'3 5.3
2017-Sep-16 21:30N 36°08' E 014°47'0 0.5
2017-Sep-16 21:00N 36°08' E 014°47'0 0.7
2017-Sep-16 20:30N 36°08' E 014°46'0 0.7
2017-Sep-16 20:00N 36°08' E 014°46'0 0.8
2017-Sep-16 19:30N 36°07' E 014°46'0 0.7
2017-Sep-16 19:00N 36°07' E 014°46'0 0.7
2017-Sep-16 18:30N 36°07' E 014°45'0 0.7
2017-Sep-16 18:00N 36°07' E 014°45'0 0.7
2017-Sep-16 17:30N 36°06' E 014°45'0 0.7
2017-Sep-16 17:00N 36°06' E 014°45'0 0.7
2017-Sep-16 16:30N 36°06' E 014°45'0 0.6
2017-Sep-16 16:00N 36°05' E 014°45'0 0.6
2017-Sep-16 15:30N 36°05' E 014°45'0 0.6
2017-Sep-16 15:00N 36°05' E 014°45'0 0.6
2017-Sep-16 14:30N 36°04' E 014°45'0 0.6
2017-Sep-16 14:00N 36°04' E 014°45'0 0.7
2017-Sep-16 13:30N 36°04' E 014°45'0 0.7
2017-Sep-16 13:00N 36°03' E 014°45'0 0.6
2017-Sep-16 12:30N 36°03' E 014°45'0 0.5
2017-Sep-16 12:00N 36°03' E 014°45'0 0.4
2017-Sep-16 11:30N 36°03' E 014°45'0 0.6
2017-Sep-16 11:00N 36°03' E 014°46'0 0.8
2017-Sep-16 10:30N 36°02' E 014°46'0 0.8
2017-Sep-16 10:00N 36°02' E 014°47'1 1.8
2017-Sep-16 09:30N 36°02' E 014°47'2 4.7
2017-Sep-16 09:00N 36°00' E 014°50'3 5.1
2017-Sep-16 08:30N 35°59' E 014°53'2 4.5
2017-Sep-16 08:00N 35°58' E 014°55'1 2.2
2017-Sep-16 07:30N 35°57' E 014°54'0 0.3
2017-Sep-16 07:00N 35°57' E 014°54'0 0.3
2017-Sep-16 06:30N 35°57' E 014°54'0 0.1
2017-Sep-16 06:00N 35°57' E 014°54'1 1.4
2017-Sep-16 05:30N 35°57' E 014°54'1 1.1
2017-Sep-16 05:00N 35°57' E 014°53'1 2.6
2017-Sep-16 04:30N 35°56' E 014°52'0 0.2
2017-Sep-16 04:00N 35°56' E 014°52'0 0.4
2017-Sep-16 03:30N 35°56' E 014°52'1 2.8
2017-Sep-16 03:00N 35°55' E 014°51'1 2.4
2017-Sep-16 02:30N 35°54' E 014°50'0 0.0
2017-Sep-16 02:00N 35°54' E 014°50'0 0.0
2017-Sep-16 01:30N 35°54' E 014°50'0 0.0
2017-Sep-16 01:00N 35°54' E 014°50'0 0.0
2017-Sep-16 00:30N 35°54' E 014°50'0 0.0
2017-Sep-15 23:57N 35°54' E 014°50'0 0.0
2017-Sep-15 23:30N 35°54' E 014°50'0 0.0
2017-Sep-15 23:00N 35°54' E 014°50'0 0.0
2017-Sep-15 22:30N 35°54' E 014°50'0 0.0
2017-Sep-15 21:54N 35°54' E 014°50'0 0.0
2017-Sep-15 21:30N 35°54' E 014°50'0 0.0
2017-Sep-15 21:00N 35°54' E 014°50'0 0.0
2017-Sep-15 20:30N 35°54' E 014°50'0 0.0
2017-Sep-15 20:00N 35°54' E 014°50'0 0.0
2017-Sep-15 19:30N 35°54' E 014°50'0 0.0
2017-Sep-15 19:00N 35°54' E 014°50'0 0.0
2017-Sep-15 18:30N 35°54' E 014°50'0 0.0
2017-Sep-15 18:00N 35°54' E 014°50'0 0.0
2017-Sep-15 17:30N 35°54' E 014°50'0 0.0
2017-Sep-15 17:00N 35°54' E 014°50'0 0.0
2017-Sep-15 16:30N 35°54' E 014°50'0 0.0
2017-Sep-15 16:00N 35°54' E 014°50'0 0.0
2017-Sep-15 15:30N 35°54' E 014°50'0 0.0
2017-Sep-15 15:00N 35°54' E 014°50'0 0.0
2017-Sep-15 14:30N 35°54' E 014°50'0 0.0
2017-Sep-15 14:00N 35°54' E 014°50'0 0.0
2017-Sep-15 13:30N 35°54' E 014°50'0 0.0
2017-Sep-15 12:54N 35°54' E 014°50'0 0.0
2017-Sep-15 12:30N 35°54' E 014°50'0 0.0
2017-Sep-15 10:54N 35°54' E 014°50'0 0.0
2017-Sep-15 10:30N 35°54' E 014°50'0 0.0
2017-Sep-15 10:00N 35°54' E 014°50'0 0.0
2017-Sep-15 09:30N 35°54' E 014°50'0 0.0
2017-Sep-15 08:54N 35°54' E 014°50'0 0.1
2017-Sep-15 08:30N 35°54' E 014°50'0 0.0
2017-Sep-15 08:00N 35°54' E 014°50'0 0.0
2017-Sep-15 07:27N 35°54' E 014°50'0 0.0
2017-Sep-15 07:00N 35°54' E 014°50'0 0.0
2017-Sep-15 06:30N 35°54' E 014°50'0 0.0
2017-Sep-15 06:00N 35°54' E 014°50'0 0.0
2017-Sep-15 05:30N 35°54' E 014°50'0 0.0
2017-Sep-15 05:00N 35°54' E 014°50'0 0.0
2017-Sep-15 04:30N 35°54' E 014°50'0 0.0
2017-Sep-15 04:00N 35°54' E 014°50'0 0.0
2017-Sep-15 03:30N 35°54' E 014°50'0 0.0
2017-Sep-15 03:00N 35°54' E 014°50'0 0.0
2017-Sep-15 02:27N 35°54' E 014°50'0 0.0
2017-Sep-15 01:54N 35°54' E 014°50'0 0.0
2017-Sep-15 01:30N 35°54' E 014°50'0 0.0
2017-Sep-15 01:00N 35°54' E 014°50'0 0.0
2017-Sep-15 00:30N 35°54' E 014°50'0 0.1
2017-Sep-15 00:00N 35°54' E 014°50'0 0.1
2017-Sep-14 23:30N 35°54' E 014°50'0 0.0
2017-Sep-14 22:57N 35°54' E 014°50'0 0.0
2017-Sep-14 22:30N 35°54' E 014°50'0 0.0
2017-Sep-14 22:00N 35°54' E 014°50'0 0.0
2017-Sep-14 21:30N 35°54' E 014°50'0 0.0
2017-Sep-14 21:00N 35°54' E 014°50'0 0.0
2017-Sep-14 20:30N 35°54' E 014°50'0 0.0
2017-Sep-14 20:00N 35°54' E 014°50'0 0.0
2017-Sep-14 19:30N 35°54' E 014°50'0 0.0
2017-Sep-14 18:59N 35°54' E 014°50'0 0.0
2017-Sep-14 18:30N 35°54' E 014°50'0 0.0
2017-Sep-14 18:00N 35°54' E 014°50'0 0.0
2017-Sep-14 17:21N 35°54' E 014°50'0 0.0
2017-Sep-14 17:00N 35°54' E 014°50'0 0.0
2017-Sep-14 16:30N 35°54' E 014°50'0 0.0
2017-Sep-14 16:00N 35°54' E 014°50'0 0.0
2017-Sep-14 15:30N 35°54' E 014°50'0 0.1
2017-Sep-14 15:00N 35°54' E 014°50'0 0.0
2017-Sep-14 14:29N 35°54' E 014°50'0 0.0
2017-Sep-14 14:00N 35°54' E 014°50'0 0.0
2017-Sep-14 13:29N 35°54' E 014°50'0 0.0
2017-Sep-14 13:00N 35°54' E 014°50'0 0.0
2017-Sep-14 12:30N 35°54' E 014°50'0 0.0
2017-Sep-14 11:59N 35°54' E 014°50'0 0.0
2017-Sep-14 11:30N 35°54' E 014°50'0 0.1
2017-Sep-14 11:00N 35°54' E 014°50'0 0.0
2017-Sep-14 10:30N 35°54' E 014°50'0 0.1
2017-Sep-14 09:59N 35°54' E 014°50'0 0.0
2017-Sep-14 09:29N 35°54' E 014°50'0 0.0
2017-Sep-14 08:59N 35°54' E 014°50'0 0.0
2017-Sep-14 08:30N 35°54' E 014°50'0 0.0
2017-Sep-14 08:00N 35°54' E 014°50'0 0.0
2017-Sep-14 07:29N 35°54' E 014°50'0 0.0
2017-Sep-14 07:00N 35°54' E 014°50'0 0.0
2017-Sep-14 06:30N 35°54' E 014°50'0 0.0
2017-Sep-14 06:00N 35°54' E 014°50'0 0.0
2017-Sep-14 05:29N 35°54' E 014°50'0 0.0
2017-Sep-14 04:59N 35°54' E 014°50'0 0.0
2017-Sep-14 04:29N 35°54' E 014°50'  
Track history (hours):
 
Tides and Currents Weather Stations Pressure Air Temp Water Temp Dewpoint Dewpoint Depression Visibility Wind Speed Wind Dir Waves Ship Positions

Kirkby

Last reported at 2017-Sep-24 04:24 UTC. Time now 2017-Sep-24 19:28 UTC.
Position N 35°53' W 004°57'.

Length 120 m; draft 6.9 m.

Type: Ship (hazmat cat A). MMSI: 566813000.

Date/timePositionNaut miles runAvg speedWind from/ knotsBaromVisibWave heightAir tempDewpointWater temp
2017-Sep-24 04:24N 35°53' W 004°57'  
2017-Sep-17 05:50N 35°26' E 013°46'913.0
2017-Sep-17 05:07N 35°30' E 013°56'213.1
2017-Sep-17 04:59N 35°31' E 013°58'612.8
2017-Sep-17 04:30N 35°33' E 014°05'612.7
2017-Sep-17 04:00N 35°36' E 014°12'712.8
2017-Sep-17 03:29N 35°39' E 014°20'612.9
2017-Sep-17 03:00N 35°42' E 014°27'812.8
2017-Sep-17 02:24N 35°45' E 014°35'512.9
2017-Sep-17 02:00N 35°48' E 014°40'612.0
2017-Sep-17 01:30N 35°54' E 014°42'510.1
2017-Sep-17 01:00N 35°58' E 014°39'1 1.1
2017-Sep-17 00:30N 35°58' E 014°38'0 0.8
2017-Sep-17 00:00N 35°58' E 014°38'1 2.7
2017-Sep-16 23:30N 35°59' E 014°39'3 5.5
2017-Sep-16 23:00N 36°01' E 014°41'3 5.6
2017-Sep-16 22:29N 36°04' E 014°43'3 6.1
2017-Sep-16 22:00N 36°06' E 014°45'3 5.3
2017-Sep-16 21:30N 36°08' E 014°47'0 0.5
2017-Sep-16 21:00N 36°08' E 014°47'0 0.7
2017-Sep-16 20:30N 36°08' E 014°46'0 0.7
2017-Sep-16 20:00N 36°08' E 014°46'0 0.8
2017-Sep-16 19:30N 36°07' E 014°46'0 0.7
2017-Sep-16 19:00N 36°07' E 014°46'0 0.7
2017-Sep-16 18:30N 36°07' E 014°45'0 0.7
2017-Sep-16 18:00N 36°07' E 014°45'0 0.7
2017-Sep-16 17:30N 36°06' E 014°45'0 0.7
2017-Sep-16 17:00N 36°06' E 014°45'0 0.7
2017-Sep-16 16:30N 36°06' E 014°45'0 0.6
2017-Sep-16 16:00N 36°05' E 014°45'0 0.6
2017-Sep-16 15:30N 36°05' E 014°45'0 0.6
2017-Sep-16 15:00N 36°05' E 014°45'0 0.6
2017-Sep-16 14:30N 36°04' E 014°45'0 0.6
2017-Sep-16 14:00N 36°04' E 014°45'0 0.7
2017-Sep-16 13:30N 36°04' E 014°45'0 0.7
2017-Sep-16 13:00N 36°03' E 014°45'0 0.6
2017-Sep-16 12:30N 36°03' E 014°45'0 0.5
2017-Sep-16 12:00N 36°03' E 014°45'0 0.4
2017-Sep-16 11:30N 36°03' E 014°45'0 0.6
2017-Sep-16 11:00N 36°03' E 014°46'0 0.8
2017-Sep-16 10:30N 36°02' E 014°46'0 0.8
2017-Sep-16 10:00N 36°02' E 014°47'1 1.8
2017-Sep-16 09:30N 36°02' E 014°47'2 4.7
2017-Sep-16 09:00N 36°00' E 014°50'3 5.1
2017-Sep-16 08:30N 35°59' E 014°53'2 4.5
2017-Sep-16 08:00N 35°58' E 014°55'1 2.2
2017-Sep-16 07:30N 35°57' E 014°54'0 0.3
2017-Sep-16 07:00N 35°57' E 014°54'0 0.3
2017-Sep-16 06:30N 35°57' E 014°54'0 0.1
2017-Sep-16 06:00N 35°57' E 014°54'1 1.4
2017-Sep-16 05:30N 35°57' E 014°54'1 1.1
2017-Sep-16 05:00N 35°57' E 014°53'1 2.6
2017-Sep-16 04:30N 35°56' E 014°52'0 0.2
2017-Sep-16 04:00N 35°56' E 014°52'0 0.4
2017-Sep-16 03:30N 35°56' E 014°52'1 2.8
2017-Sep-16 03:00N 35°55' E 014°51'1 2.4
2017-Sep-16 02:30N 35°54' E 014°50'0 0.0
2017-Sep-16 02:00N 35°54' E 014°50'0 0.0
2017-Sep-16 01:30N 35°54' E 014°50'0 0.0
2017-Sep-16 01:00N 35°54' E 014°50'0 0.0
2017-Sep-16 00:30N 35°54' E 014°50'0 0.0
2017-Sep-15 23:57N 35°54' E 014°50'0 0.0
2017-Sep-15 23:30N 35°54' E 014°50'0 0.0
2017-Sep-15 23:00N 35°54' E 014°50'0 0.0
2017-Sep-15 22:30N 35°54' E 014°50'0 0.0
2017-Sep-15 21:54N 35°54' E 014°50'0 0.0
2017-Sep-15 21:30N 35°54' E 014°50'0 0.0
2017-Sep-15 21:00N 35°54' E 014°50'0 0.0
2017-Sep-15 20:30N 35°54' E 014°50'0 0.0
2017-Sep-15 20:00N 35°54' E 014°50'0 0.0
2017-Sep-15 19:30N 35°54' E 014°50'0 0.0
2017-Sep-15 19:00N 35°54' E 014°50'0 0.0
2017-Sep-15 18:30N 35°54' E 014°50'0 0.0
2017-Sep-15 18:00N 35°54' E 014°50'0 0.0
2017-Sep-15 17:30N 35°54' E 014°50'0 0.0
2017-Sep-15 17:00N 35°54' E 014°50'0 0.0
2017-Sep-15 16:30N 35°54' E 014°50'0 0.0
2017-Sep-15 16:00N 35°54' E 014°50'0 0.0
2017-Sep-15 15:30N 35°54' E 014°50'0 0.0
2017-Sep-15 15:00N 35°54' E 014°50'0 0.0
2017-Sep-15 14:30N 35°54' E 014°50'0 0.0
2017-Sep-15 14:00N 35°54' E 014°50'0 0.0
2017-Sep-15 13:30N 35°54' E 014°50'0 0.0
2017-Sep-15 12:54N 35°54' E 014°50'0 0.0
2017-Sep-15 12:30N 35°54' E 014°50'0 0.0
2017-Sep-15 10:54N 35°54' E 014°50'0 0.0
2017-Sep-15 10:30N 35°54' E 014°50'0 0.0
2017-Sep-15 10:00N 35°54' E 014°50'0 0.0
2017-Sep-15 09:30N 35°54' E 014°50'0 0.0
2017-Sep-15 08:54N 35°54' E 014°50'0 0.1
2017-Sep-15 08:30N 35°54' E 014°50'0 0.0
2017-Sep-15 08:00N 35°54' E 014°50'0 0.0
2017-Sep-15 07:27N 35°54' E 014°50'0 0.0
2017-Sep-15 07:00N 35°54' E 014°50'0 0.0
2017-Sep-15 06:30N 35°54' E 014°50'0 0.0
2017-Sep-15 06:00N 35°54' E 014°50'0 0.0
2017-Sep-15 05:30N 35°54' E 014°50'0 0.0
2017-Sep-15 05:00N 35°54' E 014°50'0 0.0
2017-Sep-15 04:30N 35°54' E 014°50'0 0.0
2017-Sep-15 04:00N 35°54' E 014°50'0 0.0
2017-Sep-15 03:30N 35°54' E 014°50'0 0.0
2017-Sep-15 03:00N 35°54' E 014°50'0 0.0
2017-Sep-15 02:27N 35°54' E 014°50'0 0.0
2017-Sep-15 01:54N 35°54' E 014°50'0 0.0
2017-Sep-15 01:30N 35°54' E 014°50'0 0.0
2017-Sep-15 01:00N 35°54' E 014°50'0 0.0
2017-Sep-15 00:30N 35°54' E 014°50'0 0.1
2017-Sep-15 00:00N 35°54' E 014°50'0 0.1
2017-Sep-14 23:30N 35°54' E 014°50'0 0.0
2017-Sep-14 22:57N 35°54' E 014°50'0 0.0
2017-Sep-14 22:30N 35°54' E 014°50'0 0.0
2017-Sep-14 22:00N 35°54' E 014°50'0 0.0
2017-Sep-14 21:30N 35°54' E 014°50'0 0.0
2017-Sep-14 21:00N 35°54' E 014°50'0 0.0
2017-Sep-14 20:30N 35°54' E 014°50'0 0.0
2017-Sep-14 20:00N 35°54' E 014°50'0 0.0
2017-Sep-14 19:30N 35°54' E 014°50'0 0.0
2017-Sep-14 18:59N 35°54' E 014°50'0 0.0
2017-Sep-14 18:30N 35°54' E 014°50'0 0.0
2017-Sep-14 18:00N 35°54' E 014°50'0 0.0
2017-Sep-14 17:21N 35°54' E 014°50'0 0.0
2017-Sep-14 17:00N 35°54' E 014°50'0 0.0
2017-Sep-14 16:30N 35°54' E 014°50'0 0.0
2017-Sep-14 16:00N 35°54' E 014°50'0 0.0
2017-Sep-14 15:30N 35°54' E 014°50'0 0.1
2017-Sep-14 15:00N 35°54' E 014°50'0 0.0
2017-Sep-14 14:29N 35°54' E 014°50'0 0.0
2017-Sep-14 14:00N 35°54' E 014°50'0 0.0
2017-Sep-14 13:29N 35°54' E 014°50'0 0.0
2017-Sep-14 13:00N 35°54' E 014°50'0 0.0
2017-Sep-14 12:30N 35°54' E 014°50'0 0.0
2017-Sep-14 11:59N 35°54' E 014°50'0 0.0
2017-Sep-14 11:30N 35°54' E 014°50'0 0.1
2017-Sep-14 11:00N 35°54' E 014°50'0 0.0
2017-Sep-14 10:30N 35°54' E 014°50'0 0.1
2017-Sep-14 09:59N 35°54' E 014°50'0 0.0
2017-Sep-14 09:29N 35°54' E 014°50'0 0.0
2017-Sep-14 08:59N 35°54' E 014°50'0 0.0
2017-Sep-14 08:30N 35°54' E 014°50'0 0.0
2017-Sep-14 08:00N 35°54' E 014°50'0 0.0
2017-Sep-14 07:29N 35°54' E 014°50'0 0.0
2017-Sep-14 07:00N 35°54' E 014°50'0 0.0
2017-Sep-14 06:30N 35°54' E 014°50'0 0.0
2017-Sep-14 06:00N 35°54' E 014°50'0 0.0
2017-Sep-14 05:29N 35°54' E 014°50'0 0.0
2017-Sep-14 04:59N 35°54' E 014°50'0 0.0
2017-Sep-14 04:29N 35°54' E 014°50'  

Dump ship's entire track history